Time;durP1;ratioP1;P1;durP2;ratioP2;P2;SDS_P1;SDS_P2;PMS_P1;PMS_P2;Temp;Humidity;BMP_temperature;BMP_pressure;BME280_temperature;BME280_humidity;BME280_pressure;Samples;Min_cycle;Max_cycle;Signal;HPM_P1;HPM_P2
2022/10/07 00:00:11;;;;;;;0.10;0.10;;;12.70;99.90;;;;;;5036254;28;20053;-80
2022/10/07 00:02:37;;;;;;;0.10;0.10;;;12.70;99.90;;;;;;5001692;28;1026819;-79
2022/10/07 00:05:03;;;;;;;0.10;0.10;;;12.60;99.90;;;;;;5032636;28;20390;-81
2022/10/07 00:07:28;;;;;;;0.10;0.10;;;12.60;99.90;;;;;;5038982;28;20437;-80
2022/10/07 00:09:54;;;;;;;0.10;0.10;;;12.70;99.90;;;;;;5033536;28;20053;-80
2022/10/07 00:12:20;;;;;;;0.00;0.00;;;12.60;99.90;;;;;;5021263;28;20484;-80
2022/10/07 00:14:45;;;;;;;0.10;0.10;;;12.60;99.90;;;;;;5033469;28;20049;-80
2022/10/07 00:17:11;;;;;;;0.10;0.10;;;12.60;99.90;;;;;;5028274;28;20050;-80
2022/10/07 00:19:36;;;;;;;0.10;0.10;;;12.60;99.90;;;;;;5044368;28;20057;-81
2022/10/07 00:22:02;;;;;;;0.13;0.13;;;12.60;99.90;;;;;;5048900;28;20049;-81
2022/10/07 00:24:27;;;;;;;0.10;0.10;;;12.60;99.90;;;;;;5032688;28;20115;-81
2022/10/07 00:26:53;;;;;;;0.00;0.00;;;12.70;99.90;;;;;;5026983;28;20052;-81
2022/10/07 00:29:18;;;;;;;1.40;0.60;;;12.70;99.90;;;;;;5020481;28;20073;-80
2022/10/07 00:31:44;;;;;;;0.20;0.20;;;12.60;99.90;;;;;;5042588;28;20044;-80
2022/10/07 00:34:10;;;;;;;0.08;0.08;;;12.60;99.90;;;;;;5034030;28;20095;-80
2022/10/07 00:36:37;;;;;;;0.50;0.50;;;12.60;99.90;;;;;;5028710;28;20152;-80
2022/10/07 00:39:04;;;;;;;0.10;0.10;;;12.60;99.90;;;;;;5030636;28;20045;-80
2022/10/07 00:41:33;;;;;;;0.10;0.10;;;12.60;99.90;;;;;;5029809;28;20041;-80
2022/10/07 00:44:19;;;;;;;0.10;0.10;;;12.60;99.90;;;;;;5038643;28;20432;-81
2022/10/07 00:46:45;;;;;;;0.08;0.08;;;12.50;99.90;;;;;;5027911;28;20049;-80
2022/10/07 00:49:12;;;;;;;1.35;0.73;;;12.50;99.90;;;;;;5037021;28;20044;-80
2022/10/07 00:51:39;;;;;;;0.00;0.00;;;12.50;99.90;;;;;;5047481;28;20056;-81
2022/10/07 00:54:12;;;;;;;0.10;0.10;;;12.50;99.90;;;;;;5038332;28;20056;-80
2022/10/07 00:56:41;;;;;;;0.10;0.10;;;12.50;99.90;;;;;;5026162;28;20091;-81
2022/10/07 00:59:07;;;;;;;0.03;0.03;;;12.50;99.90;;;;;;5028448;28;20416;-81
2022/10/07 01:01:33;;;;;;;0.00;0.00;;;12.50;99.90;;;;;;5036785;28;20061;-80
2022/10/07 01:03:59;;;;;;;0.10;0.10;;;12.50;99.90;;;;;;5020351;28;20058;-80
2022/10/07 01:06:25;;;;;;;0.00;0.00;;;12.50;99.90;;;;;;5033869;28;20095;-80
2022/10/07 01:08:52;;;;;;;0.10;0.10;;;12.50;99.90;;;;;;5026384;28;20053;-81
2022/10/07 01:11:59;;;;;;;0.10;0.10;;;12.50;99.90;;;;;;5044687;28;20099;-81
2022/10/07 01:14:41;;;;;;;0.05;0.05;;;12.50;99.90;;;;;;5034363;28;20057;-80
2022/10/07 01:17:15;;;;;;;0.00;0.00;;;12.50;99.90;;;;;;5032377;28;20124;-80
2022/10/07 01:20:00;;;;;;;0.05;0.05;;;12.50;99.90;;;;;;5048033;28;20044;-80
2022/10/07 01:22:47;;;;;;;0.13;0.13;;;12.50;99.90;;;;;;5022582;28;20132;-80
2022/10/07 01:25:31;;;;;;;0.17;0.17;;;12.50;99.90;;;;;;5022367;28;20455;-80
2022/10/07 01:28:15;;;;;;;0.10;0.10;;;12.50;99.90;;;;;;5037437;28;20053;-81
2022/10/07 01:30:46;;;;;;;0.08;0.08;;;12.40;99.90;;;;;;5033371;28;20045;-80
2022/10/07 01:33:17;;;;;;;0.10;0.10;;;12.40;99.90;;;;;;5038514;28;21582;-80
2022/10/07 01:35:45;;;;;;;0.10;0.10;;;12.40;99.90;;;;;;5027965;28;20038;-80
2022/10/07 01:38:15;;;;;;;0.03;0.03;;;12.40;99.90;;;;;;5036567;28;20500;-79
2022/10/07 01:40:47;;;;;;;0.00;0.00;;;12.40;99.90;;;;;;5038376;28;20045;-80
2022/10/07 01:43:16;;;;;;;0.10;0.10;;;12.40;99.90;;;;;;5023827;28;20175;-79
2022/10/07 01:45:42;;;;;;;0.00;0.00;;;12.40;99.90;;;;;;5039099;28;20045;-80
2022/10/07 01:48:08;;;;;;;0.30;0.30;;;12.30;99.90;;;;;;5031319;28;20037;-80
2022/10/07 01:50:35;;;;;;;0.50;0.50;;;12.40;99.90;;;;;;5044045;28;20125;-80
2022/10/07 01:53:30;;;;;;;0.10;0.10;;;12.30;99.90;;;;;;5046478;28;20162;-80
2022/10/07 01:56:10;;;;;;;0.25;0.25;;;12.30;99.90;;;;;;5030281;28;20489;-80
2022/10/07 01:58:52;;;;;;;0.20;0.20;;;12.20;99.90;;;;;;5039494;28;20044;-80
2022/10/07 02:01:26;;;;;;;0.08;0.08;;;12.20;99.90;;;;;;5025631;28;20058;-79
2022/10/07 02:03:58;;;;;;;0.00;0.00;;;12.20;99.90;;;;;;5018367;28;20409;-80
2022/10/07 02:06:39;;;;;;;11.38;2.38;;;12.30;99.90;;;;;;5041981;28;20515;-80
2022/10/07 02:09:19;;;;;;;0.00;0.00;;;12.30;99.90;;;;;;5035108;28;20447;-78
2022/10/07 02:11:50;;;;;;;0.10;0.10;;;12.30;99.90;;;;;;5051014;28;20123;-79
2022/10/07 02:14:28;;;;;;;0.10;0.10;;;12.20;99.90;;;;;;5031712;28;20413;-79
2022/10/07 02:17:00;;;;;;;0.10;0.10;;;12.20;99.90;;;;;;5030772;28;20048;-79
2022/10/07 02:19:33;;;;;;;0.10;0.10;;;12.20;99.90;;;;;;5034428;28;20046;-79
2022/10/07 02:22:03;;;;;;;0.10;0.10;;;12.30;99.90;;;;;;5035883;28;20065;-79
2022/10/07 02:24:33;;;;;;;0.10;0.10;;;12.20;99.90;;;;;;5029945;28;20048;-79
2022/10/07 02:27:04;;;;;;;0.10;0.10;;;12.20;99.90;;;;;;5044096;28;20055;-79
2022/10/07 02:29:34;;;;;;;0.03;0.03;;;12.20;99.90;;;;;;5013553;28;20512;-79
2022/10/07 02:32:04;;;;;;;0.00;0.00;;;12.20;99.90;;;;;;5018811;28;20042;-80
2022/10/07 02:34:31;;;;;;;0.10;0.10;;;12.20;99.90;;;;;;5025488;28;20123;-80
2022/10/07 02:37:01;;;;;;;0.10;0.10;;;12.20;99.90;;;;;;5019309;28;20073;-80
2022/10/07 02:39:28;;;;;;;1.25;1.08;;;12.20;99.90;;;;;;5011612;28;20116;-80
2022/10/07 02:42:24;;;;;;;0.28;0.28;;;12.20;99.90;;;;;;5012131;28;20508;-80
2022/10/07 02:44:54;;;;;;;0.03;0.03;;;12.20;99.90;;;;;;5029862;28;20481;-79
2022/10/07 02:47:27;;;;;;;0.05;0.05;;;12.20;99.90;;;;;;5027620;28;20117;-80
2022/10/07 02:49:59;;;;;;;0.03;0.03;;;12.20;99.90;;;;;;5028776;28;20553;-80
2022/10/07 02:52:29;;;;;;;0.10;0.10;;;12.20;99.90;;;;;;5025817;28;20050;-80
2022/10/07 02:54:59;;;;;;;0.00;0.00;;;12.20;99.90;;;;;;5011578;28;20060;-80
2022/10/07 02:57:29;;;;;;;1.88;0.50;;;12.20;99.90;;;;;;5044060;28;20469;-80
2022/10/07 02:59:57;;;;;;;0.00;0.00;;;12.20;99.90;;;;;;5043826;28;20072;-80
2022/10/07 03:02:27;;;;;;;4.20;1.50;;;12.20;99.90;;;;;;5031075;28;20090;-80
2022/10/07 03:04:56;;;;;;;0.00;0.00;;;12.20;99.90;;;;;;5024938;28;20505;-79
2022/10/07 03:07:22;;;;;;;0.10;0.10;;;12.20;99.90;;;;;;5009816;28;20143;-80
2022/10/07 03:09:47;;;;;;;0.00;0.00;;;12.20;99.90;;;;;;5020914;28;20500;-80
2022/10/07 03:12:13;;;;;;;0.10;0.10;;;12.20;99.90;;;;;;5047538;28;20239;-79
2022/10/07 03:14:38;;;;;;;0.10;0.10;;;12.20;99.90;;;;;;5042238;28;20048;-79
2022/10/07 03:17:04;;;;;;;4.55;0.65;;;12.20;99.90;;;;;;5033368;28;20119;-79
2022/10/07 03:19:29;;;;;;;0.98;0.50;;;12.20;99.90;;;;;;5019416;28;20052;-79
2022/10/07 03:21:55;;;;;;;0.10;0.10;;;12.20;99.90;;;;;;5012566;28;20045;-79
2022/10/07 03:24:21;;;;;;;0.30;0.30;;;12.20;99.90;;;;;;5032416;28;20048;-79
2022/10/07 03:26:46;;;;;;;0.10;0.10;;;12.30;99.90;;;;;;5035047;28;20083;-79
2022/10/07 03:29:12;;;;;;;0.10;0.10;;;12.20;99.90;;;;;;5030029;28;20053;-79
2022/10/07 03:31:40;;;;;;;0.17;0.17;;;12.20;99.90;;;;;;5014263;28;20053;-79
2022/10/07 03:34:06;;;;;;;0.10;0.10;;;12.20;99.90;;;;;;5023745;28;20046;-79
2022/10/07 03:36:32;;;;;;;0.35;0.35;;;12.20;99.90;;;;;;5037921;28;20397;-80
2022/10/07 03:38:57;;;;;;;0.00;0.00;;;12.20;99.90;;;;;;5016528;28;20041;-80
2022/10/07 03:41:23;;;;;;;0.08;0.08;;;12.20;99.90;;;;;;5021906;28;20056;-80
2022/10/07 03:43:49;;;;;;;0.22;0.22;;;12.20;99.90;;;;;;5026712;28;20069;-79
2022/10/07 03:46:16;;;;;;;0.10;0.10;;;12.20;99.90;;;;;;5012796;28;20129;-79
2022/10/07 03:48:41;;;;;;;0.25;0.25;;;12.20;99.90;;;;;;5042408;28;20053;-79
2022/10/07 03:51:07;;;;;;;0.03;0.03;;;12.20;99.90;;;;;;5028809;28;20163;-80
2022/10/07 03:53:33;;;;;;;0.10;0.10;;;12.20;99.90;;;;;;5024019;28;20052;-81
2022/10/07 03:55:58;;;;;;;0.10;0.10;;;12.20;99.90;;;;;;5023849;28;20121;-82
2022/10/07 03:58:24;;;;;;;0.00;0.00;;;12.20;99.90;;;;;;5017777;28;20900;-81
2022/10/07 04:00:50;;;;;;;0.32;0.28;;;12.20;99.90;;;;;;5039171;28;20439;-82
2022/10/07 04:03:17;;;;;;;0.20;0.20;;;12.20;99.90;;;;;;5038633;28;20045;-82
2022/10/07 04:05:44;;;;;;;0.10;0.10;;;12.20;99.90;;;;;;5012193;28;20060;-81
2022/10/07 04:08:11;;;;;;;0.10;0.10;;;12.20;99.90;;;;;;5043430;28;20086;-81
2022/10/07 04:10:36;;;;;;;0.00;0.00;;;12.10;99.90;;;;;;5027503;28;20087;-81
2022/10/07 04:13:02;;;;;;;0.38;0.38;;;12.20;99.90;;;;;;5037657;28;20037;-80
2022/10/07 04:15:27;;;;;;;0.10;0.10;;;12.10;99.90;;;;;;5028532;28;20073;-81
2022/10/07 04:17:57;;;;;;;0.10;0.10;;;12.10;99.90;;;;;;5015025;28;20124;-81
2022/10/07 04:20:23;;;;;;;0.00;0.00;;;12.10;99.90;;;;;;5025668;28;20050;-80
2022/10/07 04:22:48;;;;;;;0.10;0.10;;;12.10;99.90;;;;;;5043233;28;20098;-81
2022/10/07 04:25:32;;;;;;;0.00;0.00;;;12.20;99.90;;;;;;5027631;28;20049;-78
2022/10/07 04:27:59;;;;;;;;;;;12.20;99.90;;;;;;5008894;28;20077;-79
2022/10/07 04:30:27;;;;;;;1.98;0.73;;;12.20;99.90;;;;;;5016665;28;19925;-79
2022/10/07 04:32:53;;;;;;;0.10;0.10;;;12.10;99.90;;;;;;5029288;28;20050;-79
2022/10/07 04:35:22;;;;;;;0.10;0.10;;;12.20;99.90;;;;;;5029386;28;20045;-79
2022/10/07 04:37:49;;;;;;;0.10;0.10;;;12.10;99.90;;;;;;5050467;28;20380;-80
2022/10/07 04:40:15;;;;;;;0.05;0.05;;;12.20;99.90;;;;;;5042195;28;20417;-80
2022/10/07 04:45:26;;;;;;;0.93;0.50;;;12.10;99.90;;;;;;5039598;28;21026;-81
2022/10/07 04:47:51;;;;;;;0.10;0.10;;;12.20;99.90;;;;;;5051035;28;20076;-81
2022/10/07 04:50:17;;;;;;;0.10;0.10;;;12.20;99.90;;;;;;5033485;28;20149;-80
2022/10/07 04:52:42;;;;;;;0.00;0.00;;;12.20;99.90;;;;;;5032021;28;20124;-80
2022/10/07 04:55:13;;;;;;;0.30;0.17;;;12.20;99.90;;;;;;5035694;28;20045;-80
2022/10/07 04:57:39;;;;;;;0.00;0.00;;;12.20;99.90;;;;;;5026319;28;20030;-81
2022/10/07 05:00:05;;;;;;;0.10;0.10;;;12.20;99.90;;;;;;5022215;28;20517;-78
2022/10/07 05:02:31;;;;;;;0.10;0.10;;;12.20;99.90;;;;;;5024837;28;20042;-81
2022/10/07 05:04:57;;;;;;;0.10;0.10;;;12.20;99.90;;;;;;5032565;28;20140;-81
2022/10/07 05:07:22;;;;;;;0.10;0.10;;;12.20;99.90;;;;;;5033194;28;20046;-80
2022/10/07 05:09:48;;;;;;;0.32;0.32;;;12.20;99.90;;;;;;5030171;28;20048;-80
2022/10/07 05:12:16;;;;;;;0.85;0.82;;;12.20;99.90;;;;;;5030439;28;20045;-80
2022/10/07 05:14:42;;;;;;;0.10;0.10;;;12.20;99.90;;;;;;5033211;28;20045;-80
2022/10/07 05:17:08;;;;;;;1.17;0.52;;;12.10;99.90;;;;;;5028597;28;20095;-80
2022/10/07 05:19:34;;;;;;;0.10;0.10;;;12.10;99.90;;;;;;5041021;28;20045;-81
2022/10/07 05:22:00;;;;;;;4.03;1.40;;;12.10;99.90;;;;;;5025405;28;20041;-81
2022/10/07 05:24:25;;;;;;;0.10;0.10;;;12.10;99.90;;;;;;5027602;28;20052;-80
2022/10/07 05:26:51;;;;;;;1.27;1.17;;;12.10;99.90;;;;;;5031323;28;20041;-81
2022/10/07 05:29:16;;;;;;;0.10;0.10;;;12.10;99.90;;;;;;5036848;28;20033;-81
2022/10/07 05:31:42;;;;;;;0.10;0.10;;;12.10;99.90;;;;;;5031007;28;20123;-80
2022/10/07 05:34:08;;;;;;;0.20;0.20;;;12.10;99.90;;;;;;5014631;28;20053;-80
2022/10/07 05:36:34;;;;;;;0.10;0.10;;;12.10;99.90;;;;;;5018466;28;20485;-81
2022/10/07 05:38:59;;;;;;;0.30;0.30;;;12.10;99.90;;;;;;5024871;28;20045;-81
2022/10/07 05:41:27;;;;;;;0.10;0.10;;;12.10;99.90;;;;;;5036116;28;20159;-82
2022/10/07 05:43:53;;;;;;;0.00;0.00;;;12.10;99.90;;;;;;5026923;28;20180;-82
2022/10/07 05:46:22;;;;;;;1.40;0.73;;;12.10;99.90;;;;;;5042357;28;20057;-82
2022/10/07 05:48:50;;;;;;;0.65;0.65;;;12.10;99.90;;;;;;5034511;28;20041;-82
2022/10/07 05:51:17;;;;;;;0.10;0.10;;;12.10;99.90;;;;;;5032181;28;20120;-81
2022/10/07 05:53:45;;;;;;;0.30;0.30;;;12.10;99.90;;;;;;5026729;28;20041;-81
2022/10/07 05:56:14;;;;;;;0.43;0.43;;;12.10;99.90;;;;;;5021294;28;20049;-80
2022/10/07 05:58:40;;;;;;;0.10;0.10;;;12.10;99.90;;;;;;5025213;28;20034;-80
2022/10/07 06:01:11;;;;;;;0.10;0.10;;;12.10;99.90;;;;;;5016903;28;20490;-81
2022/10/07 06:03:38;;;;;;;0.32;0.32;;;12.10;99.90;;;;;;5029772;28;20069;-81
2022/10/07 06:06:03;;;;;;;0.57;0.57;;;12.10;99.90;;;;;;5027087;28;20044;-80
2022/10/07 06:08:29;;;;;;;0.10;0.10;;;12.10;99.90;;;;;;5044240;28;20037;-80
2022/10/07 06:13:48;;;;;;;0.08;0.08;;;12.10;99.90;;;;;;5012047;28;20049;-80
2022/10/07 06:16:13;;;;;;;0.10;0.10;;;12.20;99.90;;;;;;5023889;28;20057;-80
2022/10/07 06:18:39;;;;;;;0.10;0.10;;;12.10;99.90;;;;;;5046804;28;20079;-79
2022/10/07 06:21:05;;;;;;;0.70;0.47;;;12.10;99.90;;;;;;5030373;28;20136;-80
2022/10/07 06:23:32;;;;;;;0.00;0.00;;;12.20;99.90;;;;;;5030719;28;20075;-80
2022/10/07 06:26:00;;;;;;;0.08;0.08;;;12.20;99.90;;;;;;5029452;28;20090;-81
2022/10/07 06:28:35;;;;;;;0.10;0.10;;;12.20;99.90;;;;;;5040344;28;20041;-80
2022/10/07 06:31:07;;;;;;;0.00;0.00;;;12.30;99.90;;;;;;5035786;28;20045;-79
2022/10/07 06:33:33;;;;;;;4.97;0.82;;;12.30;99.90;;;;;;5041027;28;20087;-79
2022/10/07 06:36:06;;;;;;;0.40;0.40;;;12.40;99.90;;;;;;5015174;28;20073;-79
2022/10/07 06:38:32;;;;;;;0.10;0.10;;;12.40;99.90;;;;;;5024149;28;20133;-80
2022/10/07 06:41:03;;;;;;;0.00;0.00;;;12.40;99.90;;;;;;5023506;28;20041;-79
2022/10/07 06:43:30;;;;;;;0.00;0.00;;;12.40;99.90;;;;;;5031037;28;20112;-79
2022/10/07 06:46:00;;;;;;;0.57;0.57;;;12.50;99.90;;;;;;5042649;28;20127;-80
2022/10/07 06:48:27;;;;;;;0.00;0.00;;;12.50;99.90;;;;;;5047264;28;20045;-79
2022/10/07 06:50:54;;;;;;;0.17;0.17;;;12.50;99.90;;;;;;5048380;28;20045;-78
2022/10/07 06:53:21;;;;;;;0.10;0.10;;;12.60;99.90;;;;;;5051472;28;20130;-79
2022/10/07 06:55:50;;;;;;;0.17;0.17;;;12.60;99.90;;;;;;5032300;28;20095;-80
2022/10/07 06:58:16;;;;;;;1.13;1.02;;;12.60;99.90;;;;;;5031789;28;20497;-79
2022/10/07 07:00:46;;;;;;;0.10;0.10;;;12.60;99.90;;;;;;5030424;28;20148;-80
2022/10/07 07:03:11;;;;;;;0.10;0.10;;;12.60;99.90;;;;;;5026455;28;20501;-81
2022/10/07 07:05:39;;;;;;;2.42;0.95;;;12.70;99.90;;;;;;5031573;28;20049;-82
2022/10/07 07:08:04;;;;;;;0.25;0.25;;;12.70;99.90;;;;;;5018474;28;20660;-81
2022/10/07 07:10:30;;;;;;;0.40;0.40;;;12.80;99.90;;;;;;5050727;28;20049;-81
2022/10/07 07:12:56;;;;;;;0.32;0.32;;;12.80;99.90;;;;;;5045593;28;20485;-80
2022/10/07 07:15:22;;;;;;;0.03;0.03;;;12.80;99.90;;;;;;5044640;28;20045;-80
2022/10/07 07:17:48;;;;;;;0.35;0.35;;;12.90;99.90;;;;;;5040345;28;20052;-81
2022/10/07 07:20:14;;;;;;;0.43;0.43;;;12.90;99.90;;;;;;5047778;28;20084;-82
2022/10/07 07:22:40;;;;;;;0.75;0.45;;;12.90;99.90;;;;;;5038203;28;20079;-81
2022/10/07 07:25:10;;;;;;;0.10;0.10;;;13.00;99.90;;;;;;5028663;28;20103;-80
2022/10/07 07:27:36;;;;;;;0.17;0.17;;;13.00;99.90;;;;;;5029011;28;20046;-81
2022/10/07 07:30:03;;;;;;;5.00;0.95;;;13.00;99.90;;;;;;5028388;28;20049;-81
2022/10/07 07:32:31;;;;;;;0.10;0.10;;;13.00;99.90;;;;;;5027535;28;20108;-81
2022/10/07 07:34:59;;;;;;;0.38;0.38;;;13.10;99.90;;;;;;5020119;28;20081;-81
2022/10/07 07:37:28;;;;;;;0.20;0.20;;;13.10;99.90;;;;;;5029691;28;20500;-83
2022/10/07 07:39:54;;;;;;;0.90;0.90;;;13.10;99.90;;;;;;5028973;28;20041;-80
2022/10/07 07:42:20;;;;;;;5.05;1.35;;;13.10;99.90;;;;;;5026696;28;20041;-81
2022/10/07 07:44:46;;;;;;;0.52;0.52;;;13.20;99.90;;;;;;5028209;28;20085;-81
2022/10/07 07:47:15;;;;;;;0.00;0.00;;;13.20;99.90;;;;;;5030361;28;20033;-79
2022/10/07 07:49:40;;;;;;;0.10;0.10;;;13.30;99.90;;;;;;5047675;28;20048;-80
2022/10/07 07:52:07;;;;;;;0.00;0.00;;;13.40;99.90;;;;;;5036049;28;20060;-81
2022/10/07 07:54:36;;;;;;;1.83;1.40;;;13.30;99.90;;;;;;5027690;28;20110;-82
2022/10/07 07:57:02;;;;;;;0.98;0.73;;;13.40;99.90;;;;;;5041306;28;20049;-82
2022/10/07 07:59:30;;;;;;;0.00;0.00;;;13.40;99.90;;;;;;5048438;28;20400;-82
2022/10/07 08:01:56;;;;;;;22.73;0.90;;;13.40;99.90;;;;;;5048624;28;20167;-82
2022/10/07 08:04:22;;;;;;;0.00;0.00;;;13.50;99.90;;;;;;5029312;28;20460;-81
2022/10/07 08:06:48;;;;;;;0.00;0.00;;;13.50;99.90;;;;;;5048580;28;20537;-81
2022/10/07 08:09:14;;;;;;;0.63;0.60;;;13.60;99.90;;;;;;5048738;28;20175;-82
2022/10/07 08:11:41;;;;;;;0.98;0.98;;;13.60;99.90;;;;;;5048876;28;20079;-83
2022/10/07 08:14:07;;;;;;;0.08;0.08;;;13.60;99.90;;;;;;5050616;28;20494;-81
2022/10/07 08:16:33;;;;;;;0.25;0.25;;;13.70;99.90;;;;;;5052625;28;20047;-81
2022/10/07 08:18:59;;;;;;;1.08;0.90;;;13.70;99.90;;;;;;5038880;28;20041;-81
2022/10/07 08:21:29;;;;;;;6.03;1.45;;;13.70;99.90;;;;;;5036547;28;20045;-80
2022/10/07 08:23:56;;;;;;;0.20;0.20;;;13.70;99.90;;;;;;5036810;28;20477;-82
2022/10/07 08:26:22;;;;;;;0.90;0.80;;;13.70;99.90;;;;;;5049552;28;20144;-82
2022/10/07 08:28:48;;;;;;;3.50;1.50;;;13.70;99.90;;;;;;5049284;28;20045;-84
2022/10/07 08:31:16;;;;;;;0.10;0.10;;;13.80;99.90;;;;;;5031655;28;20400;-82
2022/10/07 08:33:43;;;;;;;0.38;0.38;;;13.80;99.90;;;;;;5023328;28;20176;-80
2022/10/07 08:36:18;;;;;;;0.20;0.20;;;13.90;99.90;;;;;;5049622;28;20049;-81
2022/10/07 08:38:45;;;;;;;0.52;0.52;;;13.90;99.90;;;;;;5052052;28;20134;-81
2022/10/07 08:41:40;;;;;;;17.73;1.55;;;13.90;99.90;;;;;;5028305;28;20049;-80
2022/10/07 08:44:12;;;;;;;0.20;0.20;;;14.00;99.90;;;;;;5039132;28;20389;-78
2022/10/07 08:46:46;;;;;;;0.63;0.63;;;14.00;99.90;;;;;;5023859;28;20053;-80
2022/10/07 08:49:16;;;;;;;1.27;1.17;;;14.10;99.90;;;;;;5051297;28;20040;-79
2022/10/07 08:51:49;;;;;;;1.45;0.63;;;14.10;99.90;;;;;;5041752;28;20044;-81
2022/10/07 08:54:18;;;;;;;0.00;0.00;;;14.20;99.90;;;;;;5048489;28;20140;-79
2022/10/07 08:56:46;;;;;;;0.13;0.13;;;14.30;99.90;;;;;;5050123;28;20049;-79
2022/10/07 08:59:21;;;;;;;0.60;0.60;;;14.30;99.90;;;;;;5033709;28;20048;-79
2022/10/07 09:02:20;;;;;;;1.13;0.45;;;14.40;99.90;;;;;;5051172;28;20079;-80
2022/10/07 09:05:16;;;;;;;0.30;0.30;;;14.40;99.90;;;;;;5050164;28;20539;-83
2022/10/07 09:07:49;;;;;;;1.08;1.08;;;14.50;99.90;;;;;;5048394;28;20037;-79
2022/10/07 09:10:15;;;;;;;;;;;14.60;99.90;;;;;;5050112;28;20073;-77
2022/10/07 09:12:53;;;;;;;7.82;2.72;;;14.60;99.90;;;;;;5050784;28;19967;-80
2022/10/07 09:15:48;;;;;;;0.10;0.10;;;15.10;99.90;;;;;;5047851;28;20051;-80
2022/10/07 09:18:22;;;;;;;0.75;0.75;;;15.90;99.90;;;;;;5029879;28;20783;-78
2022/10/07 09:20:52;;;;;;;0.32;0.32;;;16.70;99.90;;;;;;5029295;28;20124;-81
2022/10/07 09:23:23;;;;;;;25.05;0.57;;;17.30;99.90;;;;;;5040688;28;20057;-79
2022/10/07 09:25:49;;;;;;;0.10;0.10;;;17.60;99.90;;;;;;5051267;28;20044;-78
2022/10/07 09:28:26;;;;;;;1.98;0.65;;;17.90;99.90;;;;;;5048814;28;20073;-77
2022/10/07 09:30:51;;;;;;;0.10;0.10;;;18.30;99.90;;;;;;5032621;28;20064;-76
2022/10/07 09:33:22;;;;;;;0.47;0.47;;;18.70;99.90;;;;;;5049111;28;20052;-76
2022/10/07 09:36:02;;;;;;;0.00;0.00;;;18.80;99.90;;;;;;5050409;28;20049;-76
2022/10/07 09:38:32;;;;;;;0.32;0.32;;;18.90;99.90;;;;;;5039934;28;20045;-78
2022/10/07 09:41:23;;;;;;;0.30;0.25;;;18.40;99.90;;;;;;5038150;28;20404;-81
2022/10/07 09:43:57;;;;;;;3.40;1.05;;;18.30;99.90;;;;;;5030138;28;20049;-82
2022/10/07 09:46:39;;;;;;;6.82;2.15;;;18.10;99.90;;;;;;5025562;28;20623;-77
2022/10/07 09:49:06;;;;;;;0.10;0.10;;;17.90;99.90;;;;;;5031972;28;20507;-77
2022/10/07 09:51:34;;;;;;;0.10;0.10;;;17.80;99.90;;;;;;5049461;28;20492;-76
2022/10/07 09:54:05;;;;;;;0.20;0.20;;;17.90;99.90;;;;;;5043056;28;20721;-76
2022/10/07 09:56:43;;;;;;;17.42;2.08;;;17.80;99.90;;;;;;5039179;28;20423;-78
2022/10/07 09:59:22;;;;;;;1.42;1.35;;;17.60;99.90;;;;;;5044710;28;20042;-78
2022/10/07 10:02:07;;;;;;;0.20;0.20;;;17.50;99.90;;;;;;5049024;28;20377;-78
2022/10/07 10:04:36;;;;;;;1.75;0.65;;;17.50;99.90;;;;;;5048602;28;20100;-80
2022/10/07 10:07:14;;;;;;;0.20;0.20;;;17.40;99.90;;;;;;5048545;28;20879;-79
2022/10/07 10:09:49;;;;;;;0.10;0.10;;;17.40;99.90;;;;;;5050622;28;20128;-78
2022/10/07 10:12:16;;;;;;;0.10;0.10;;;17.40;99.90;;;;;;5046737;28;20044;-81
2022/10/07 10:14:44;;;;;;;0.20;0.20;;;17.10;99.90;;;;;;5050008;28;20174;-81
2022/10/07 10:17:33;;;;;;;0.00;0.00;;;17.10;99.90;;;;;;5035301;28;20382;-78
2022/10/07 10:20:17;;;;;;;0.60;0.13;;;17.10;99.90;;;;;;5030065;28;20041;-85
2022/10/07 10:22:43;;;;;;;0.00;0.00;;;17.00;99.90;;;;;;5029983;28;20145;-84
2022/10/07 10:28:08;;;;;;;0.30;0.28;;;17.00;99.90;;;;;;5049691;28;20053;-84
2022/10/07 10:30:41;;;;;;;0.35;0.35;;;16.90;99.90;;;;;;5032694;28;20056;-84
2022/10/07 10:33:10;;;;;;;0.10;0.10;;;16.90;99.90;;;;;;5027777;28;20050;-82
2022/10/07 10:35:51;;;;;;;3.72;1.08;;;16.90;99.90;;;;;;5049401;28;20102;-80
2022/10/07 10:38:32;;;;;;;1.50;1.40;;;17.00;99.90;;;;;;5048633;28;20580;-83
2022/10/07 10:41:16;;;;;;;5.55;2.33;;;17.10;99.90;;;;;;5036942;28;20049;-83
2022/10/07 10:44:18;;;;;;;0.65;0.60;;;17.10;99.90;;;;;;5040610;28;20048;-83
2022/10/07 10:47:36;;;;;;;0.40;0.40;;;17.20;99.90;;;;;;5038834;28;20521;-84
2022/10/07 10:50:16;;;;;;;0.10;0.10;;;17.10;99.90;;;;;;5025239;28;20041;-82
2022/10/07 10:53:01;;;;;;;7.68;0.80;;;17.20;99.90;;;;;;5039685;28;20451;-83
2022/10/07 10:56:00;;;;;;;0.98;0.47;;;17.20;99.90;;;;;;5049054;28;20503;-83
2022/10/07 10:58:57;;;;;;;0.52;0.30;;;17.30;99.90;;;;;;5048525;28;20585;-84
2022/10/07 11:01:39;;;;;;;0.32;0.32;;;17.50;99.90;;;;;;5046744;28;20139;-83
2022/10/07 11:04:28;;;;;;;0.10;0.10;;;17.40;99.90;;;;;;5048571;28;20064;-82
2022/10/07 11:07:01;;;;;;;5.68;2.42;;;17.50;99.90;;;;;;5045941;28;20057;-84
2022/10/07 11:09:42;;;;;;;0.10;0.10;;;17.50;99.90;;;;;;5048652;28;20036;-80
2022/10/07 11:12:32;;;;;;;0.80;0.80;;;17.50;99.90;;;;;;5048804;28;20053;-77
2022/10/07 11:15:04;;;;;;;0.38;0.38;;;17.60;99.90;;;;;;5046480;28;20052;-76
2022/10/07 11:17:34;;;;;;;1.00;0.60;;;17.70;99.90;;;;;;5030603;28;20076;-82
2022/10/07 11:20:26;;;;;;;5.68;0.75;;;17.90;99.90;;;;;;5029038;28;20053;-80
2022/10/07 11:23:02;;;;;;;0.10;0.10;;;18.00;99.90;;;;;;5040787;28;20087;-83
2022/10/07 11:25:42;;;;;;;2.28;0.80;;;18.00;99.90;;;;;;5048784;28;20061;-85
2022/10/07 11:28:20;;;;;;;2.90;2.05;;;18.20;99.90;;;;;;5047568;28;20496;-85
2022/10/07 11:30:53;;;;;;;1.75;0.73;;;18.30;99.90;;;;;;5042652;28;20106;-77
2022/10/07 11:33:27;;;;;;;16.25;2.13;;;18.40;99.90;;;;;;5044843;28;20045;-83
2022/10/07 11:36:02;;;;;;;1.08;0.75;;;18.50;99.90;;;;;;5048428;28;20080;-84
2022/10/07 11:38:34;;;;;;;4.68;2.17;;;18.70;99.90;;;;;;5048824;28;20051;-84
2022/10/07 11:41:21;;;;;;;2.85;1.75;;;18.50;99.90;;;;;;5035434;28;20084;-83
2022/10/07 11:43:52;;;;;;;1.77;1.20;;;18.50;99.90;;;;;;5045738;28;20044;-82
2022/10/07 11:46:23;;;;;;;0.10;0.10;;;18.80;99.90;;;;;;5034590;28;20097;-83
2022/10/07 11:48:59;;;;;;;0.20;0.20;;;19.00;99.90;;;;;;5045385;28;20047;-78
2022/10/07 11:51:33;;;;;;;0.10;0.10;;;19.20;99.90;;;;;;5050218;28;20048;-82
2022/10/07 11:54:01;;;;;;;3.00;1.17;;;19.20;99.90;;;;;;5048790;28;20040;-83
2022/10/07 11:56:34;;;;;;;0.57;0.28;;;18.80;99.90;;;;;;5047582;28;20492;-81
2022/10/07 11:59:03;;;;;;;0.52;0.47;;;18.50;99.90;;;;;;5034226;28;20049;-81
2022/10/07 12:01:33;;;;;;;0.32;0.32;;;18.50;99.90;;;;;;5019013;28;20551;-78
2022/10/07 12:04:23;;;;;;;0.32;0.32;;;18.30;99.90;;;;;;5020440;28;20823;-79
2022/10/07 12:07:27;;;;;;;0.00;0.00;;;18.20;99.90;;;;;;5041292;28;20098;-77
2022/10/07 12:10:02;;;;;;;0.10;0.10;;;18.00;99.90;;;;;;5029472;28;20042;-76
2022/10/07 12:12:45;;;;;;;0.00;0.00;;;18.20;99.90;;;;;;5028695;28;20057;-75
2022/10/07 12:15:41;;;;;;;0.38;0.38;;;18.50;99.90;;;;;;5032321;28;20049;-78
2022/10/07 12:18:06;;;;;;;0.10;0.10;;;18.40;99.90;;;;;;5023785;28;20047;-81
2022/10/07 12:20:51;;;;;;;3.15;0.60;;;18.50;99.90;;;;;;5020512;28;20048;-82
2022/10/07 12:25:54;;;;;;;0.00;0.00;;;19.20;99.90;;;;;;5040150;28;20049;-81
2022/10/07 12:28:33;;;;;;;0.00;0.00;;;19.10;99.90;;;;;;5041629;28;20476;-83
2022/10/07 12:31:05;;;;;;;4.20;1.85;;;19.20;99.90;;;;;;5028960;28;20060;-84
2022/10/07 12:33:36;;;;;;;0.00;0.00;;;19.30;99.90;;;;;;5019250;28;20033;-81
2022/10/07 12:36:20;;;;;;;0.00;0.00;;;19.20;99.90;;;;;;5037564;28;20057;-84
2022/10/07 12:39:00;;;;;;;0.00;0.00;;;19.30;99.90;;;;;;5032207;28;20497;-84
2022/10/07 12:41:35;;;;;;;0.00;0.00;;;19.30;99.90;;;;;;5027029;28;20052;-82
2022/10/07 12:44:07;;;;;;;0.52;0.52;;;19.40;99.90;;;;;;5034763;28;20651;-82
2022/10/07 12:46:37;;;;;;;0.65;0.65;;;19.60;99.90;;;;;;5046010;28;20076;-79
2022/10/07 12:49:25;;;;;;;0.00;0.00;;;19.30;99.90;;;;;;5047758;28;20550;-79
2022/10/07 12:51:53;;;;;;;0.20;0.20;;;19.60;99.90;;;;;;5045678;28;20049;-80
2022/10/07 12:54:27;;;;;;;0.55;0.55;;;19.50;99.90;;;;;;5045752;28;20045;-85
2022/10/07 12:56:53;;;;;;;0.00;0.00;;;19.30;99.90;;;;;;5051035;28;20045;-83
2022/10/07 12:59:47;;;;;;;0.43;0.43;;;19.40;99.90;;;;;;5047890;28;20049;-83
2022/10/07 13:02:31;;;;;;;;;;;19.50;99.90;;;;;;5050322;28;20049;-84
2022/10/07 13:05:06;;;;;;;0.03;0.03;;;19.70;99.90;;;;;;5049967;28;19932;-84
2022/10/07 13:08:18;;;;;;;2.83;1.00;;;19.80;99.90;;;;;;5028407;28;20136;-85
2022/10/07 13:11:19;;;;;;;0.30;0.30;;;19.60;99.90;;;;;;5027144;28;20112;-83
2022/10/07 13:14:08;;;;;;;0.08;0.08;;;19.60;99.90;;;;;;5035698;28;20045;-83
2022/10/07 13:16:59;;;;;;;14.55;0.68;;;19.10;99.90;;;;;;5042389;28;20488;-84
2022/10/07 13:19:29;;;;;;;0.00;0.00;;;19.30;99.90;;;;;;5047024;28;20128;-84
2022/10/07 13:22:05;;;;;;;0.30;0.13;;;19.00;99.90;;;;;;5036188;28;20063;-84